Time;durP1;ratioP1;P1;durP2;ratioP2;P2;SDS_P1;SDS_P2;PMS_P1;PMS_P2;Temp;Humidity;BMP_temperature;BMP_pressure;BME280_temperature;BME280_humidity;BME280_pressure;Samples;Min_cycle;Max_cycle;Signal;HPM_P1;HPM_P2
2021/11/11 00:01:43;;;;;;;0.85;0.85;;;;;;;13.31;58.77;102487.94;5061626;28;20104;-85
2021/11/11 00:04:11;;;;;;;0.20;0.20;;;;;;;13.31;58.62;102487.94;5058837;28;20025;-84
2021/11/11 00:06:41;;;;;;;0.10;0.10;;;;;;;13.31;58.85;102487.94;5064950;28;20048;-84
2021/11/11 00:09:08;;;;;;;0.15;0.15;;;;;;;13.30;58.78;102486.19;5069271;28;20037;-85
2021/11/11 00:11:34;;;;;;;0.10;0.10;;;;;;;13.29;58.92;102485.28;5070724;28;20043;-85
2021/11/11 00:14:04;;;;;;;0.10;0.10;;;;;;;13.29;58.54;102481.75;5073533;28;20361;-85
2021/11/11 00:16:30;;;;;;;0.35;0.35;;;;;;;13.27;58.97;102487.97;5067784;28;20047;-85
2021/11/11 00:18:56;;;;;;;0.13;0.13;;;;;;;13.26;59.10;102483.53;5068952;28;20487;-85
2021/11/11 00:21:23;;;;;;;0.13;0.13;;;;;;;13.29;58.86;102479.09;5069338;28;20484;-85
2021/11/11 00:23:49;;;;;;;0.15;0.15;;;;;;;13.30;59.38;102475.56;5064493;28;20103;-85
2021/11/11 00:26:16;;;;;;;0.38;0.38;;;;;;;13.32;59.17;102477.31;5046333;28;20496;-84
2021/11/11 00:28:42;;;;;;;0.25;0.25;;;;;;;13.31;59.40;102477.28;5065597;28;20025;-85
2021/11/11 00:31:08;;;;;;;0.22;0.22;;;;;;;13.31;58.87;102486.19;5064404;28;20048;-84
2021/11/11 00:33:34;;;;;;;0.68;0.68;;;;;;;13.31;59.22;102482.63;5071892;28;20020;-83
2021/11/11 00:36:01;;;;;;;7.03;1.55;;;;;;;13.31;59.15;102482.63;5067856;28;20024;-84
2021/11/11 00:41:01;;;;;;;8.02;2.65;;;;;;;13.32;59.28;102484.41;5027009;28;20045;-84
2021/11/11 00:43:28;;;;;;;0.95;0.95;;;;;;;13.34;58.98;102482.63;5032270;28;20042;-81
2021/11/11 00:45:55;;;;;;;0.40;0.40;;;;;;;13.33;59.30;102486.16;5023321;28;20030;-81
2021/11/11 00:48:22;;;;;;;0.38;0.38;;;;;;;13.34;59.23;102491.47;5018190;28;20036;-80
2021/11/11 00:50:49;;;;;;;0.70;0.60;;;;;;;13.35;59.12;102484.41;5009782;28;20026;-83
2021/11/11 00:53:16;;;;;;;0.30;0.30;;;;;;;13.35;59.18;102479.06;5002109;28;20418;-82
2021/11/11 00:55:43;;;;;;;1.48;1.38;;;;;;;13.36;59.45;102481.72;5007783;28;20112;-83
2021/11/11 00:58:12;;;;;;;0.10;0.10;;;;;;;13.39;59.68;102486.16;5006969;28;20066;-81
2021/11/11 01:00:39;;;;;;;0.10;0.10;;;;;;;13.41;59.70;102487.06;5003965;28;20025;-82
2021/11/11 01:03:07;;;;;;;0.85;0.85;;;;;;;13.41;59.37;102479.94;5007998;28;20033;-81
2021/11/11 01:05:34;;;;;;;1.35;1.10;;;;;;;13.42;59.52;102486.13;5004395;28;20030;-80
2021/11/11 01:08:02;;;;;;;0.17;0.17;;;;;;;13.42;59.16;102484.38;5006620;28;20389;-80
2021/11/11 01:10:29;;;;;;;0.10;0.10;;;;;;;13.44;59.60;102484.38;5005793;28;20386;-84
2021/11/11 01:12:58;;;;;;;0.40;0.40;;;;;;;13.42;59.47;102487.03;5004793;28;20037;-79
2021/11/11 01:15:28;;;;;;;0.10;0.10;;;;;;;13.44;59.51;102495.00;5008175;28;20026;-83
2021/11/11 01:17:54;;;;;;;0.57;0.57;;;;;;;13.43;59.67;102486.16;5008405;28;20084;-82
2021/11/11 01:20:22;;;;;;;0.10;0.10;;;;;;;13.45;59.45;102493.25;5010229;28;20037;-81
2021/11/11 01:22:51;;;;;;;1.70;1.60;;;;;;;13.44;60.05;102479.03;5010095;28;20469;-82
2021/11/11 01:25:21;;;;;;;3.42;0.90;;;;;;;13.46;59.78;102481.69;5010915;28;20098;-81
2021/11/11 01:27:48;;;;;;;6.50;1.77;;;;;;;13.44;60.26;102479.03;5013396;28;20028;-83
2021/11/11 01:30:15;;;;;;;0.20;0.20;;;;;;;13.42;60.46;102481.72;5007834;28;20048;-78
2021/11/11 01:32:41;;;;;;;0.10;0.10;;;;;;;13.40;59.89;102477.28;5003060;28;20057;-79
2021/11/11 01:35:09;;;;;;;0.20;0.20;;;;;;;13.41;60.43;102471.09;5005752;28;20026;-81
2021/11/11 01:37:37;;;;;;;0.30;0.30;;;;;;;13.42;60.20;102483.47;5007151;28;20196;-79
2021/11/11 01:40:06;;;;;;;0.40;0.38;;;;;;;13.42;60.56;102479.06;5008144;28;20025;-80
2021/11/11 01:42:51;;;;;;;0.57;0.50;;;;;;;13.42;60.37;102471.06;5009173;28;20049;-78
2021/11/11 01:45:22;;;;;;;0.10;0.10;;;;;;;13.39;60.71;102470.19;5014206;28;20037;-81
2021/11/11 01:47:52;;;;;;;0.10;0.10;;;;;;;13.32;61.17;102458.69;5013022;28;20034;-83
2021/11/11 01:50:19;;;;;;;0.93;0.90;;;;;;;13.31;60.66;102456.91;5015953;28;20026;-83
2021/11/11 01:52:47;;;;;;;0.10;0.10;;;;;;;13.32;61.08;102458.69;5006897;28;20038;-79
2021/11/11 01:55:15;;;;;;;4.40;1.15;;;;;;;13.30;60.97;102449.81;4995131;28;20023;-80
2021/11/11 01:57:42;;;;;;;0.10;0.10;;;;;;;13.30;61.17;102452.47;4994944;28;20112;-82
2021/11/11 02:00:31;;;;;;;0.22;0.22;;;;;;;13.29;61.48;102447.16;4996009;28;20478;-82
2021/11/11 02:03:00;;;;;;;0.20;0.20;;;;;;;13.28;61.38;102446.25;4994067;28;20085;-81
2021/11/11 02:05:27;;;;;;;0.30;0.30;;;;;;;13.25;61.71;102439.19;4994509;28;20030;-82
2021/11/11 02:07:54;;;;;;;0.20;0.20;;;;;;;13.25;61.22;102438.31;4994788;28;20035;-82
2021/11/11 02:10:22;;;;;;;0.10;0.10;;;;;;;13.23;61.32;102435.66;5065512;22;20045;-84
2021/11/11 02:12:49;;;;;;;0.30;0.30;;;;;;;13.23;61.48;102434.75;5064413;28;20024;-82
2021/11/11 02:15:17;;;;;;;0.30;0.30;;;;;;;13.24;61.36;102444.50;5065780;28;20032;-82
2021/11/11 02:17:45;;;;;;;6.60;3.08;;;;;;;13.23;61.21;102435.66;5070372;28;20024;-83
2021/11/11 02:20:15;;;;;;;0.10;0.10;;;;;;;13.25;61.70;102438.31;5063327;28;20029;-83
2021/11/11 02:22:42;;;;;;;0.38;0.38;;;;;;;13.21;61.49;102440.09;5058396;28;20024;-82
2021/11/11 02:25:12;;;;;;;0.57;0.57;;;;;;;13.22;61.66;102435.66;5059376;28;20033;-82
2021/11/11 02:27:39;;;;;;;0.88;0.88;;;;;;;13.19;61.95;102431.22;5058066;28;20354;-84
2021/11/11 02:30:08;;;;;;;0.28;0.28;;;;;;;13.23;61.64;102438.31;5056271;28;20040;-84
2021/11/11 02:32:36;;;;;;;0.25;0.25;;;;;;;13.21;61.71;102437.44;5057645;28;20037;-83
2021/11/11 02:35:05;;;;;;;1.27;0.82;;;;;;;13.20;61.33;102443.63;5061301;28;20032;-83
2021/11/11 02:37:33;;;;;;;0.03;0.03;;;;;;;13.18;61.50;102434.78;5059741;28;20085;-83
2021/11/11 02:40:04;;;;;;;2.38;2.28;;;;;;;13.20;61.70;102437.44;5059041;28;20024;-81
2021/11/11 02:42:30;;;;;;;0.10;0.10;;;;;;;13.19;61.69;102441.88;5063845;28;20029;-83
2021/11/11 02:45:00;;;;;;;0.70;0.55;;;;;;;13.15;61.94;102442.78;5057805;28;20040;-83
2021/11/11 02:47:27;;;;;;;0.20;0.20;;;;;;;13.19;61.78;102435.69;5068505;28;20543;-83
2021/11/11 02:49:54;;;;;;;0.10;0.10;;;;;;;13.18;61.82;102440.09;5073340;28;20031;-83
2021/11/11 02:52:21;;;;;;;0.20;0.20;;;;;;;13.19;61.74;102431.22;5073431;28;20044;-82
2021/11/11 02:54:47;;;;;;;0.40;0.40;;;;;;;13.18;61.71;102429.44;5073473;28;20094;-83
2021/11/11 03:02:52;;;;;;;3.15;1.67;;;;;;;13.04;62.44;102432.19;5010512;27;1656390;-82
2021/11/11 03:05:22;;;;;;;0.65;0.65;;;;;;;13.21;62.22;102436.56;5070060;28;20491;-83
2021/11/11 03:07:49;;;;;;;0.40;0.40;;;;;;;13.23;61.43;102435.66;5069661;28;20562;-82
2021/11/11 03:10:20;;;;;;;0.10;0.10;;;;;;;13.23;61.44;102427.66;5059529;28;20029;-83
2021/11/11 03:12:48;;;;;;;0.10;0.10;;;;;;;13.22;61.34;102425.91;5038882;28;20045;-82
2021/11/11 03:15:16;;;;;;;0.40;0.40;;;;;;;13.23;61.48;102424.09;5057429;28;20087;-82
2021/11/11 03:17:43;;;;;;;0.68;0.68;;;;;;;13.24;61.89;102429.41;5057350;28;20033;-82
2021/11/11 03:20:12;;;;;;;0.22;0.22;;;;;;;13.22;61.48;102436.53;5054554;28;20029;-82
2021/11/11 03:22:40;;;;;;;0.10;0.10;;;;;;;13.20;61.77;102433.00;5054297;28;20040;-82
2021/11/11 03:25:08;;;;;;;0.10;0.10;;;;;;;13.22;61.38;102436.53;5057109;28;20033;-84
2021/11/11 03:27:34;;;;;;;0.38;0.38;;;;;;;13.21;61.55;102439.22;5045287;28;20029;-83
2021/11/11 03:30:02;;;;;;;0.40;0.40;;;;;;;13.18;61.38;102440.09;5066092;28;20383;-83
2021/11/11 03:32:28;;;;;;;0.20;0.20;;;;;;;13.17;61.22;102446.34;5056247;28;20029;-83
2021/11/11 03:35:03;;;;;;;0.65;0.65;;;;;;;13.21;61.38;102439.22;5055799;28;20033;-82
2021/11/11 03:37:34;;;;;;;0.25;0.17;;;;;;;13.15;61.49;102437.47;5058117;28;20098;-84
2021/11/11 03:40:13;;;;;;;1.42;1.42;;;;;;;13.20;61.26;102435.66;5043686;28;20071;-83
2021/11/11 03:42:49;;;;;;;0.10;0.10;;;;;;;13.19;61.62;102436.53;5058929;28;20106;-83
2021/11/11 03:45:16;;;;;;;0.20;0.20;;;;;;;13.17;61.79;102437.44;5057046;28;20502;-84
2021/11/11 03:47:44;;;;;;;1.02;1.02;;;;;;;13.17;61.97;102440.09;5057904;28;20032;-84
2021/11/11 03:50:11;;;;;;;2.72;1.38;;;;;;;13.17;61.78;102442.78;5054926;28;20033;-84
2021/11/11 03:52:37;;;;;;;0.10;0.10;;;;;;;13.13;61.40;102433.91;5055458;28;20104;-84
2021/11/11 03:55:06;;;;;;;0.20;0.20;;;;;;;13.15;61.68;102437.47;5063621;28;20036;-84
2021/11/11 03:57:32;;;;;;;1.08;1.08;;;;;;;13.13;61.40;102443.69;5064562;28;20025;-84
2021/11/11 03:59:58;;;;;;;0.22;0.22;;;;;;;13.10;61.16;102447.25;5055617;28;20396;-84
2021/11/11 04:02:34;;;;;;;0.80;0.47;;;;;;;13.14;61.22;102443.66;5054831;28;20459;-84
2021/11/11 04:05:00;;;;;;;0.13;0.13;;;;;;;13.14;61.55;102449.00;5059870;28;20119;-84
2021/11/11 04:07:27;;;;;;;0.10;0.10;;;;;;;13.12;61.83;102450.78;5060501;28;20489;-85
2021/11/11 04:09:53;;;;;;;0.70;0.70;;;;;;;13.11;61.92;102457.00;5063255;28;20033;-84
2021/11/11 04:12:24;;;;;;;0.32;0.32;;;;;;;13.12;61.22;102450.78;5052357;28;20079;-83
2021/11/11 04:14:52;;;;;;;0.20;0.20;;;;;;;13.05;61.45;102455.25;5040568;28;20036;-85
2021/11/11 04:17:18;;;;;;;1.20;1.20;;;;;;;13.02;61.29;102459.69;5052172;28;20021;-84
2021/11/11 04:19:44;;;;;;;1.65;1.55;;;;;;;13.04;61.32;102463.25;5048002;28;20030;-84
2021/11/11 04:22:10;;;;;;;0.20;0.20;;;;;;;13.00;61.69;102457.06;5049272;28;20033;-85
2021/11/11 04:24:37;;;;;;;1.67;1.58;;;;;;;13.00;61.70;102456.19;5041563;28;20075;-84
2021/11/11 04:27:08;;;;;;;0.95;0.95;;;;;;;12.99;61.84;102454.41;5041759;28;20453;-84
2021/11/11 04:29:39;;;;;;;1.90;1.00;;;;;;;12.97;61.49;102453.50;5048739;28;20396;-84
2021/11/11 04:32:08;;;;;;;0.25;0.25;;;;;;;12.96;61.39;102447.31;5032673;28;20021;-84
2021/11/11 04:34:36;;;;;;;0.57;0.57;;;;;;;12.94;61.14;102441.97;5023855;28;20018;-84
2021/11/11 04:42:51;;;;;;;0.10;0.10;;;;;;;12.92;61.22;102448.19;5056483;28;20576;-83
2021/11/11 04:59:33;;;;;;;0.57;0.47;;;;;;;12.87;60.93;102450.91;5040786;27;1439427;-82
2021/11/11 04:59:45;;;;;;;0.98;0.90;;;;;;;12.85;61.00;102454.47;5068830;28;20026;-82
2021/11/11 05:04:35;;;;;;;1.98;1.65;;;;;;;12.87;61.12;102456.22;5063065;28;20033;-82
2021/11/11 05:07:02;;;;;;;0.10;0.10;;;;;;;12.91;61.22;102451.75;5062040;28;20036;-82
2021/11/11 05:09:28;;;;;;;0.77;0.77;;;;;;;12.90;61.13;102461.50;5062161;23;20041;-80
2021/11/11 05:11:54;;;;;;;0.52;0.52;;;;;;;12.91;61.25;102463.28;5030379;28;20392;-77
2021/11/11 05:14:21;;;;;;;0.13;0.13;;;;;;;12.91;61.37;102460.63;5031123;28;20030;-81
2021/11/11 05:16:47;;;;;;;0.38;0.32;;;;;;;12.89;61.39;102454.41;5030535;28;20469;-82
2021/11/11 05:19:13;;;;;;;0.40;0.40;;;;;;;12.90;61.28;102456.19;5030534;28;20037;-80
2021/11/11 05:21:40;;;;;;;0.20;0.20;;;;;;;12.90;61.48;102461.50;5012762;28;20057;-81
2021/11/11 05:24:06;;;;;;;0.20;0.20;;;;;;;12.83;61.44;102454.44;5030566;28;20500;-82
2021/11/11 05:26:33;;;;;;;0.30;0.30;;;;;;;12.82;61.11;102452.66;5030913;28;20068;-83
2021/11/11 05:28:59;;;;;;;0.20;0.20;;;;;;;12.76;61.34;102450.94;5030495;28;20021;-79
2021/11/11 05:31:25;;;;;;;0.57;0.57;;;;;;;12.78;61.44;102453.56;5030488;28;20068;-84
2021/11/11 05:33:51;;;;;;;2.17;1.38;;;;;;;12.78;61.14;102449.16;5030724;28;20366;-78
2021/11/11 05:36:17;;;;;;;0.73;0.50;;;;;;;12.75;61.78;102449.16;5030610;28;20029;-80
2021/11/11 05:38:43;;;;;;;0.10;0.10;;;;;;;12.77;60.96;102446.47;5030944;28;20036;-79
2021/11/11 05:41:10;;;;;;;0.20;0.20;;;;;;;12.79;61.60;102458.00;5030570;28;20037;-79
2021/11/11 05:43:37;;;;;;;3.45;3.15;;;;;;;12.80;60.83;102446.50;5030459;28;20076;-81
2021/11/11 05:46:05;;;;;;;0.20;0.20;;;;;;;12.82;60.76;102447.34;5030344;28;20385;-80
2021/11/11 05:48:31;;;;;;;0.20;0.20;;;;;;;12.77;61.15;102446.47;5030085;28;20037;-81
2021/11/11 05:50:57;;;;;;;0.25;0.25;;;;;;;12.83;61.01;102449.13;5030628;28;20025;-78
2021/11/11 05:53:23;;;;;;;1.05;0.95;;;;;;;12.77;61.15;102444.72;5030620;28;20038;-79
2021/11/11 05:55:51;;;;;;;0.30;0.30;;;;;;;12.81;61.41;102456.25;5030256;28;20030;-82
2021/11/11 05:58:17;;;;;;;0.15;0.15;;;;;;;12.82;61.22;102457.13;5030258;28;20087;-79
2021/11/11 06:00:43;;;;;;;0.50;0.50;;;;;;;12.84;60.97;102458.88;5029807;28;20052;-83
2021/11/11 06:03:09;;;;;;;0.30;0.30;;;;;;;12.86;60.87;102456.22;5026281;28;20068;-83
2021/11/11 06:05:36;;;;;;;1.35;1.35;;;;;;;12.86;61.08;102469.50;5017098;28;20037;-81
2021/11/11 06:08:02;;;;;;;3.20;2.45;;;;;;;12.86;61.23;102467.75;4999503;28;20116;-83
2021/11/11 06:10:29;;;;;;;0.68;0.68;;;;;;;12.86;60.55;102469.50;5016344;28;20045;-80
2021/11/11 06:12:55;;;;;;;0.32;0.32;;;;;;;12.87;61.40;102472.19;5016438;28;20091;-80
2021/11/11 06:15:21;;;;;;;0.40;0.40;;;;;;;12.86;61.23;102475.72;5017151;28;20030;-84
2021/11/11 06:17:52;;;;;;;0.10;0.10;;;;;;;12.84;61.16;102472.19;5016734;28;20026;-80
2021/11/11 06:20:21;;;;;;;0.30;0.30;;;;;;;12.85;61.10;102471.28;5016387;28;20216;-83
2021/11/11 06:22:48;;;;;;;1.75;1.27;;;;;;;12.83;61.24;102467.75;5016082;28;20480;-82
2021/11/11 06:25:15;;;;;;;0.55;0.55;;;;;;;12.82;61.39;102475.72;5016086;28;20065;-79
2021/11/11 06:27:41;;;;;;;1.30;1.23;;;;;;;12.81;61.85;102477.53;5016554;28;20373;-80
2021/11/11 06:30:08;;;;;;;0.22;0.22;;;;;;;12.75;61.28;102482.88;5015631;28;20037;-79
2021/11/11 06:32:35;;;;;;;0.28;0.28;;;;;;;12.79;62.01;102481.94;5016080;28;20042;-79
2021/11/11 06:35:02;;;;;;;0.60;0.60;;;;;;;12.74;61.70;102481.97;5016656;28;20034;-81
2021/11/11 06:37:28;;;;;;;1.17;1.10;;;;;;;12.75;61.70;102485.53;5016058;28;20042;-80
2021/11/11 06:39:54;;;;;;;3.33;1.73;;;;;;;12.76;62.23;102479.28;5016873;28;20573;-80
2021/11/11 06:42:21;;;;;;;0.25;0.25;;;;;;;12.77;62.34;102484.63;5016036;28;20030;-80
2021/11/11 06:44:48;;;;;;;0.35;0.35;;;;;;;12.76;62.06;102484.59;5015746;28;20476;-80
2021/11/11 06:47:14;;;;;;;0.73;0.73;;;;;;;12.76;62.13;102481.94;5016175;28;20449;-78
2021/11/11 06:49:40;;;;;;;0.28;0.28;;;;;;;12.78;61.62;102480.19;5016223;28;20030;-78
2021/11/11 06:52:07;;;;;;;3.33;0.98;;;;;;;12.79;62.25;102489.94;4997882;28;20038;-79
2021/11/11 06:54:33;;;;;;;0.10;0.10;;;;;;;12.81;61.93;102490.81;5016221;28;20116;-82
2021/11/11 06:57:00;;;;;;;0.10;0.10;;;;;;;12.80;61.85;102489.03;5015819;28;20065;-78
2021/11/11 06:59:26;;;;;;;1.00;0.98;;;;;;;12.82;61.87;102497.88;5015674;28;20109;-80
2021/11/11 07:01:52;;;;;;;1.63;1.55;;;;;;;12.84;62.06;102501.44;5016297;28;20036;-77
2021/11/11 07:04:18;;;;;;;0.13;0.13;;;;;;;12.83;62.09;102507.66;5015694;28;20489;-78
2021/11/11 07:06:44;;;;;;;2.17;0.90;;;;;;;12.85;61.72;102511.19;5015595;28;20046;-77
2021/11/11 07:09:10;;;;;;;2.58;1.25;;;;;;;12.88;61.81;102511.16;5015888;28;20495;-79
2021/11/11 07:11:36;;;;;;;0.52;0.52;;;;;;;12.89;62.05;102507.63;5015444;28;20030;-78
2021/11/11 07:14:02;;;;;;;1.70;1.60;;;;;;;12.88;62.08;102510.31;5015594;28;20388;-79
2021/11/11 07:16:29;;;;;;;0.10;0.10;;;;;;;12.91;61.87;102513.84;5014512;28;20425;-81
2021/11/11 07:18:55;;;;;;;2.80;1.75;;;;;;;12.92;61.93;102517.38;5015137;28;20026;-80
2021/11/11 07:21:21;;;;;;;1.55;1.45;;;;;;;12.92;62.24;102522.69;5015630;28;20061;-80
2021/11/11 07:23:47;;;;;;;6.13;0.75;;;;;;;12.96;61.98;102524.47;5014921;28;20501;-79
2021/11/11 07:26:14;;;;;;;0.32;0.32;;;;;;;13.01;61.56;102524.44;5015182;28;20045;-79
2021/11/11 07:28:40;;;;;;;0.28;0.28;;;;;;;12.98;62.05;102522.69;5015242;28;20036;-80
2021/11/11 07:31:07;;;;;;;1.25;1.25;;;;;;;13.02;61.86;102520.88;5015218;28;20048;-80
2021/11/11 07:33:33;;;;;;;0.45;0.45;;;;;;;13.04;61.65;102513.81;5015587;28;20036;-80
2021/11/11 07:36:03;;;;;;;0.22;0.22;;;;;;;13.08;61.95;102518.22;5015323;28;20022;-82
2021/11/11 07:38:30;;;;;;;4.13;2.00;;;;;;;13.08;61.47;102524.44;5014498;28;20545;-80
2021/11/11 07:40:56;;;;;;;0.30;0.30;;;;;;;13.08;61.80;102521.78;5014324;28;20033;-79
2021/11/11 07:43:23;;;;;;;2.50;2.40;;;;;;;13.14;61.62;102528.84;5014682;28;20037;-81
2021/11/11 07:45:49;;;;;;;8.70;2.15;;;;;;;13.17;61.64;102526.19;5015051;28;20045;-80
2021/11/11 07:48:15;;;;;;;0.22;0.17;;;;;;;13.17;61.63;102528.84;5013624;28;20045;-80
2021/11/11 07:50:42;;;;;;;0.10;0.10;;;;;;;13.19;61.88;102529.69;5012734;28;20033;-78
2021/11/11 07:53:09;;;;;;;0.08;0.08;;;;;;;13.24;61.79;102541.22;5013672;28;20236;-78
2021/11/11 07:55:38;;;;;;;0.30;0.30;;;;;;;13.26;61.67;102535.91;5013207;28;20160;-78
2021/11/11 07:58:05;;;;;;;0.93;0.93;;;;;;;13.27;61.88;102535.88;5012640;28;20503;-78
2021/11/11 08:00:32;;;;;;;0.63;0.63;;;;;;;13.30;61.47;102534.13;5009863;28;20026;-78
2021/11/11 08:02:58;;;;;;;2.28;0.73;;;;;;;13.31;61.79;102541.19;5013925;28;20022;-78
2021/11/11 08:05:25;;;;;;;2.55;1.10;;;;;;;13.34;61.89;102541.19;5012484;28;20040;-78
2021/11/11 08:07:51;;;;;;;0.75;0.75;;;;;;;13.40;61.43;102530.53;5006420;28;20081;-79
2021/11/11 08:10:20;;;;;;;0.45;0.45;;;;;;;13.40;61.79;102527.88;5004681;28;20049;-80
2021/11/11 08:12:47;;;;;;;0.30;0.30;;;;;;;13.41;62.13;102537.66;5010410;28;20125;-78
2021/11/11 08:15:15;;;;;;;0.30;0.30;;;;;;;13.40;62.15;102530.53;5018009;28;20036;-81
2021/11/11 08:17:42;;;;;;;1.45;1.45;;;;;;;13.43;62.04;102527.84;5019277;28;20061;-79
2021/11/11 08:20:09;;;;;;;2.45;2.25;;;;;;;13.47;61.80;102526.97;5038547;28;20485;-83
2021/11/11 08:22:36;;;;;;;0.47;0.47;;;;;;;13.48;62.05;102520.72;5026941;28;20164;-79
2021/11/11 08:25:06;;;;;;;3.20;2.40;;;;;;;13.47;62.08;102516.31;5025505;28;20396;-80
2021/11/11 08:27:32;;;;;;;0.25;0.25;;;;;;;13.46;62.48;102525.19;5017146;28;20037;-80
2021/11/11 08:29:59;;;;;;;0.45;0.45;;;;;;;13.45;63.33;102519.88;5020906;28;20026;-81
2021/11/11 08:32:25;;;;;;;0.45;0.45;;;;;;;13.45;63.02;102517.22;5017709;28;20081;-85
2021/11/11 08:34:51;;;;;;;0.65;0.63;;;;;;;13.42;63.49;102523.41;5016661;28;20394;-80
2021/11/11 08:37:19;;;;;;;1.05;1.05;;;;;;;13.46;63.32;102524.28;5012694;28;20037;-80
2021/11/11 08:39:46;;;;;;;0.60;0.60;;;;;;;13.47;63.69;102524.31;5008232;28;20042;-84
2021/11/11 08:42:13;;;;;;;0.28;0.28;;;;;;;13.48;63.75;102527.84;5010370;28;20028;-85
2021/11/11 08:44:42;;;;;;;0.10;0.10;;;;;;;13.52;63.38;102519.84;5003625;28;20041;-83
2021/11/11 08:47:10;;;;;;;0.30;0.30;;;;;;;13.55;64.06;102519.81;5009752;28;20710;-85
2021/11/11 08:49:37;;;;;;;0.10;0.10;;;;;;;13.62;63.66;102520.66;5009980;28;20072;-83
2021/11/11 08:52:04;;;;;;;3.00;1.27;;;;;;;13.64;64.17;102518.84;5007498;28;20026;-77
2021/11/11 08:54:30;;;;;;;0.13;0.13;;;;;;;13.73;63.69;102523.25;5013538;28;20030;-83
2021/11/11 08:56:56;;;;;;;3.92;2.40;;;;;;;13.84;63.29;102513.41;5005597;28;20027;-84
2021/11/11 08:59:24;;;;;;;2.63;1.40;;;;;;;13.93;63.21;102519.56;5018402;28;20481;-83
2021/11/11 09:01:53;;;;;;;1.73;1.70;;;;;;;13.94;63.73;102516.88;5004613;28;20490;-78
2021/11/11 09:04:21;;;;;;;0.20;0.20;;;;;;;14.00;63.23;102518.63;5001569;28;20036;-79
2021/11/11 09:06:49;;;;;;;0.20;0.20;;;;;;;13.95;63.61;102526.66;4992009;28;20045;-86
2021/11/11 09:09:16;;;;;;;0.35;0.35;;;;;;;13.99;63.52;102531.06;5001469;28;20026;-82
2021/11/11 09:11:43;;;;;;;0.75;0.75;;;;;;;13.98;63.71;102525.75;5008683;28;20035;-83
2021/11/11 09:14:11;;;;;;;0.40;0.40;;;;;;;14.02;64.00;102530.19;5009141;28;20027;-83
2021/11/11 09:16:38;;;;;;;0.65;0.65;;;;;;;13.94;63.32;102530.22;4988332;28;20026;-81
2021/11/11 09:19:05;;;;;;;0.60;0.57;;;;;;;13.93;63.72;102541.75;5013313;28;20038;-85
2021/11/11 09:21:32;;;;;;;0.20;0.20;;;;;;;13.94;63.59;102542.66;5013147;28;20453;-84
2021/11/11 09:23:59;;;;;;;2.80;2.05;;;;;;;13.93;64.23;102525.78;5007653;28;20057;-79
2021/11/11 09:26:26;;;;;;;2.25;2.10;;;;;;;13.95;64.34;102534.66;5015274;28;20041;-83
2021/11/11 09:28:52;;;;;;;0.52;0.52;;;;;;;13.94;64.65;102540.00;5011599;28;20031;-79
2021/11/11 09:31:19;;;;;;;0.50;0.50;;;;;;;13.93;64.90;102547.09;5009516;28;20034;-85
2021/11/11 09:33:47;;;;;;;0.20;0.20;;;;;;;13.95;64.71;102542.66;5006350;28;20038;-83
2021/11/11 09:36:19;;;;;;;18.42;2.17;;;;;;;14.00;63.84;102537.28;5013963;28;20034;-83
2021/11/11 09:38:50;;;;;;;1.52;1.45;;;;;;;14.03;63.70;102531.94;5018375;28;20500;-83
2021/11/11 09:41:18;;;;;;;0.22;0.22;;;;;;;14.09;64.27;102537.22;5021375;28;20393;-83
2021/11/11 09:43:44;;;;;;;0.85;0.85;;;;;;;14.16;63.73;102535.41;5006841;28;20092;-82
2021/11/11 09:46:15;;;;;;;0.45;0.45;;;;;;;14.21;63.73;102531.78;5024273;28;20406;-84
2021/11/11 09:48:43;;;;;;;0.10;0.10;;;;;;;14.22;63.70;102544.22;5024689;28;20473;-84
2021/11/11 09:51:15;;;;;;;0.10;0.10;;;;;;;14.26;63.89;102539.75;4998688;28;20453;-83
2021/11/11 09:53:51;;;;;;;;;;;;;;;14.39;63.60;102537.84;5011949;28;20050;-82
2021/11/11 09:59:04;;;;;;;0.68;0.68;;;;;;;14.33;63.18;102535.25;5009541;28;20521;-84
2021/11/11 10:01:30;;;;;;;1.33;1.25;;;;;;;14.32;63.37;102538.84;5008258;28;20124;-86
2021/11/11 10:03:56;;;;;;;2.10;1.40;;;;;;;14.34;63.56;102542.34;4999608;28;20057;-84
2021/11/11 10:06:25;;;;;;;0.40;0.40;;;;;;;14.35;63.72;102539.66;5009596;28;20049;-83
2021/11/11 10:08:56;;;;;;;0.73;0.73;;;;;;;14.41;63.40;102549.41;5007981;28;20095;-84
2021/11/11 10:11:49;;;;;;;0.32;0.32;;;;;;;14.42;63.51;102544.94;5010914;28;20044;-81
2021/11/11 10:14:18;;;;;;;1.25;0.75;;;;;;;14.33;63.42;102548.56;5009441;28;20034;-80
2021/11/11 10:16:49;;;;;;;0.45;0.45;;;;;;;14.40;63.50;102547.63;5014727;28;20036;-84
2021/11/11 10:19:17;;;;;;;0.52;0.52;;;;;;;14.38;63.55;102558.31;5010237;28;20044;-80
2021/11/11 10:24:46;;;;;;;2.17;1.65;;;;;;;14.44;63.52;102559.16;5076972;28;20418;-80
2021/11/11 10:30:26;;;;;;;0.80;0.80;;;;;;;14.41;64.00;102554.75;5060680;27;20458;-79
2021/11/11 10:33:12;;;;;;;0.95;0.95;;;;;;;14.46;63.59;102558.25;5058723;28;20021;-81
2021/11/11 10:35:43;;;;;;;1.02;1.02;;;;;;;14.46;64.22;102558.25;5060108;28;20426;-80
2021/11/11 10:38:15;;;;;;;0.40;0.40;;;;;;;14.49;63.94;102542.22;5059614;28;20040;-79
2021/11/11 10:40:49;;;;;;;1.17;1.17;;;;;;;14.55;64.18;102541.28;5060744;28;20031;-81
2021/11/11 10:43:21;;;;;;;0.82;0.80;;;;;;;14.51;64.11;102540.41;5061698;28;20064;-80
2021/11/11 10:45:50;;;;;;;0.10;0.10;;;;;;;14.60;63.60;102538.56;5056491;28;20035;-86
2021/11/11 10:48:23;;;;;;;1.95;1.85;;;;;;;14.57;63.81;102544.81;5058854;28;20424;-81
2021/11/11 10:50:53;;;;;;;15.00;1.55;;;;;;;14.65;63.60;102539.44;5059832;28;20104;-82
2021/11/11 10:53:24;;;;;;;0.95;0.95;;;;;;;14.68;63.96;102534.09;5066652;28;20021;-81
2021/11/11 10:55:53;;;;;;;0.43;0.43;;;;;;;14.71;63.76;102536.72;5069029;28;20029;-81
2021/11/11 10:58:25;;;;;;;0.63;0.63;;;;;;;14.78;63.62;102532.19;5058669;28;20064;-81
2021/11/11 11:03:42;;;;;;;3.88;0.70;;;;;;;14.78;63.41;102532.19;5069140;28;20406;-84
2021/11/11 11:06:12;;;;;;;0.10;0.10;;;;;;;14.79;63.33;102529.53;5053037;28;20424;-82
2021/11/11 11:11:33;;;;;;;0.25;0.25;;;;;;;14.78;63.23;102541.09;5092500;27;20397;-81
2021/11/11 11:14:02;;;;;;;1.80;1.65;;;;;;;14.69;63.17;102535.81;5088811;28;20025;-82
2021/11/11 11:16:33;;;;;;;1.60;1.52;;;;;;;14.64;63.25;102537.63;5089337;28;20032;-83
2021/11/11 11:19:06;;;;;;;0.30;0.30;;;;;;;14.63;63.42;102527.84;5088546;28;20052;-83
2021/11/11 11:21:43;;;;;;;0.22;0.22;;;;;;;14.62;63.51;102542.13;5088535;28;20032;-83
2021/11/11 11:24:13;;;;;;;1.15;1.15;;;;;;;14.55;63.78;102535.94;5084887;28;20494;-81
2021/11/11 11:26:46;;;;;;;0.25;0.25;;;;;;;14.57;63.70;102528.81;5090079;28;20017;-82
2021/11/11 11:32:05;;;;;;;0.82;0.82;;;;;;;14.53;63.76;102541.28;5054799;28;20866;-82
2021/11/11 11:34:37;;;;;;;0.35;0.35;;;;;;;14.49;63.80;102531.56;5044150;28;20033;-85
2021/11/11 11:37:12;;;;;;;1.52;1.45;;;;;;;14.51;63.80;102529.75;5041849;28;20033;-83
2021/11/11 11:39:43;;;;;;;0.20;0.20;;;;;;;14.50;63.92;102527.09;5038262;28;20389;-84
2021/11/11 11:42:13;;;;;;;0.25;0.25;;;;;;;14.40;63.98;102516.53;5038887;28;20029;-85
2021/11/11 11:44:43;;;;;;;0.40;0.40;;;;;;;14.39;63.95;102520.09;5043271;28;20107;-82
2021/11/11 11:47:18;;;;;;;6.85;1.73;;;;;;;14.41;63.74;102517.41;5038692;28;20029;-84
2021/11/11 11:49:51;;;;;;;1.15;1.15;;;;;;;14.38;64.09;102517.41;5035562;28;20026;-84
2021/11/11 11:52:20;;;;;;;1.40;1.33;;;;;;;14.36;64.17;102520.09;5038965;28;20045;-82
2021/11/11 11:55:10;;;;;;;3.13;1.77;;;;;;;14.38;64.01;102517.41;5035344;28;20033;-81
2021/11/11 11:57:49;;;;;;;1.00;0.60;;;;;;;14.31;64.37;102521.94;5037176;28;20722;-80
2021/11/11 12:06:00;;;;;;;1.10;1.08;;;;;;;14.44;64.18;102516.50;5073964;28;20483;-79
2021/11/11 12:08:35;;;;;;;0.43;0.43;;;;;;;14.40;64.36;102515.63;5073811;28;20391;-83
2021/11/11 12:11:26;;;;;;;2.45;2.25;;;;;;;14.37;64.81;102526.34;5053106;28;20300;-82
2021/11/11 12:14:02;;;;;;;0.13;0.13;;;;;;;14.40;64.23;102527.19;5052207;28;20029;-82
2021/11/11 12:28:36;;;;;;;0.82;0.82;;;;;;;14.11;65.69;102513.25;5059069;28;20456;-80
2021/11/11 12:43:04;;;;;;;0.52;0.52;;;;;;;14.07;66.39;102501.72;5020102;27;1591607;-80
2021/11/11 12:45:51;;;;;;;0.73;0.73;;;;;;;14.08;66.36;102495.47;5053398;28;20046;-80